sensor_id;sensor_type;location;lat;lon;timestamp;temperature;humidity
24470;DHT22;12635;50.852;5.676;2023-07-20T00:01:33;15.30;99.90
24470;DHT22;12635;50.852;5.676;2023-07-20T00:04:00;15.30;99.90
24470;DHT22;12635;50.852;5.676;2023-07-20T00:06:27;15.30;99.90
24470;DHT22;12635;50.852;5.676;2023-07-20T00:08:54;15.20;99.90
24470;DHT22;12635;50.852;5.676;2023-07-20T00:11:21;15.20;99.90
24470;DHT22;12635;50.852;5.676;2023-07-20T00:13:47;15.30;99.90
24470;DHT22;12635;50.852;5.676;2023-07-20T00:16:14;15.20;99.90
24470;DHT22;12635;50.852;5.676;2023-07-20T00:18:43;15.30;99.90
24470;DHT22;12635;50.852;5.676;2023-07-20T00:21:09;15.20;99.90
24470;DHT22;12635;50.852;5.676;2023-07-20T00:23:37;15.20;99.90
24470;DHT22;12635;50.852;5.676;2023-07-20T00:26:04;15.20;99.90
24470;DHT22;12635;50.852;5.676;2023-07-20T00:28:31;15.10;99.90
24470;DHT22;12635;50.852;5.676;2023-07-20T00:30:59;15.00;99.90
24470;DHT22;12635;50.852;5.676;2023-07-20T00:33:26;15.00;99.90
24470;DHT22;12635;50.852;5.676;2023-07-20T00:35:54;14.90;99.90
24470;DHT22;12635;50.852;5.676;2023-07-20T00:38:21;14.90;99.90
24470;DHT22;12635;50.852;5.676;2023-07-20T00:40:48;14.80;99.90
24470;DHT22;12635;50.852;5.676;2023-07-20T00:43:15;14.80;99.90
24470;DHT22;12635;50.852;5.676;2023-07-20T00:45:42;14.80;99.90
24470;DHT22;12635;50.852;5.676;2023-07-20T00:48:08;14.80;99.90
24470;DHT22;12635;50.852;5.676;2023-07-20T00:50:35;14.70;99.90
24470;DHT22;12635;50.852;5.676;2023-07-20T00:53:04;14.70;99.90
24470;DHT22;12635;50.852;5.676;2023-07-20T00:55:31;14.70;99.90
24470;DHT22;12635;50.852;5.676;2023-07-20T00:57:58;14.70;99.90
24470;DHT22;12635;50.852;5.676;2023-07-20T01:00:25;14.70;99.90
24470;DHT22;12635;50.852;5.676;2023-07-20T01:02:53;14.70;99.90
24470;DHT22;12635;50.852;5.676;2023-07-20T01:05:20;14.70;99.90
24470;DHT22;12635;50.852;5.676;2023-07-20T01:07:50;14.60;99.90
24470;DHT22;12635;50.852;5.676;2023-07-20T01:10:22;14.60;99.90
24470;DHT22;12635;50.852;5.676;2023-07-20T01:12:52;14.60;99.90
24470;DHT22;12635;50.852;5.676;2023-07-20T01:15:19;14.60;99.90
24470;DHT22;12635;50.852;5.676;2023-07-20T01:17:46;14.60;99.90
24470;DHT22;12635;50.852;5.676;2023-07-20T01:20:13;14.70;99.90
24470;DHT22;12635;50.852;5.676;2023-07-20T01:25:39;14.60;99.90
24470;DHT22;12635;50.852;5.676;2023-07-20T01:28:19;14.60;99.90
24470;DHT22;12635;50.852;5.676;2023-07-20T01:30:51;14.70;99.90
24470;DHT22;12635;50.852;5.676;2023-07-20T01:33:21;14.70;99.90
24470;DHT22;12635;50.852;5.676;2023-07-20T01:35:51;14.70;99.90
24470;DHT22;12635;50.852;5.676;2023-07-20T01:38:19;14.80;99.90
24470;DHT22;12635;50.852;5.676;2023-07-20T01:40:46;14.80;99.90
24470;DHT22;12635;50.852;5.676;2023-07-20T01:43:13;14.80;99.90
24470;DHT22;12635;50.852;5.676;2023-07-20T01:45:40;14.90;99.90
24470;DHT22;12635;50.852;5.676;2023-07-20T01:48:07;14.90;99.90
24470;DHT22;12635;50.852;5.676;2023-07-20T01:50:36;15.00;99.90
24470;DHT22;12635;50.852;5.676;2023-07-20T01:53:02;15.00;99.90
24470;DHT22;12635;50.852;5.676;2023-07-20T01:55:29;15.00;99.90
24470;DHT22;12635;50.852;5.676;2023-07-20T01:57:56;15.00;99.90
24470;DHT22;12635;50.852;5.676;2023-07-20T02:00:25;15.10;99.90
24470;DHT22;12635;50.852;5.676;2023-07-20T02:02:52;15.10;99.90
24470;DHT22;12635;50.852;5.676;2023-07-20T02:05:19;15.10;99.90
24470;DHT22;12635;50.852;5.676;2023-07-20T02:07:47;15.10;99.90
24470;DHT22;12635;50.852;5.676;2023-07-20T02:10:14;15.10;99.90
24470;DHT22;12635;50.852;5.676;2023-07-20T02:12:41;15.10;99.90
24470;DHT22;12635;50.852;5.676;2023-07-20T02:15:08;15.10;99.90
24470;DHT22;12635;50.852;5.676;2023-07-20T02:17:35;15.20;99.90
24470;DHT22;12635;50.852;5.676;2023-07-20T02:20:02;15.20;99.90
24470;DHT22;12635;50.852;5.676;2023-07-20T02:22:29;15.20;99.90
24470;DHT22;12635;50.852;5.676;2023-07-20T02:24:58;15.20;99.90
24470;DHT22;12635;50.852;5.676;2023-07-20T02:27:25;15.20;99.90
24470;DHT22;12635;50.852;5.676;2023-07-20T02:29:51;15.20;99.90
24470;DHT22;12635;50.852;5.676;2023-07-20T02:32:18;15.10;99.90
24470;DHT22;12635;50.852;5.676;2023-07-20T02:34:45;15.20;99.90
24470;DHT22;12635;50.852;5.676;2023-07-20T02:37:12;15.10;99.90
24470;DHT22;12635;50.852;5.676;2023-07-20T02:39:39;15.10;99.90
24470;DHT22;12635;50.852;5.676;2023-07-20T02:42:07;15.00;99.90
24470;DHT22;12635;50.852;5.676;2023-07-20T02:44:34;15.00;99.90
24470;DHT22;12635;50.852;5.676;2023-07-20T02:47:01;15.10;99.90
24470;DHT22;12635;50.852;5.676;2023-07-20T02:49:28;15.00;99.90
24470;DHT22;12635;50.852;5.676;2023-07-20T02:51:55;14.90;99.90
24470;DHT22;12635;50.852;5.676;2023-07-20T02:54:22;14.80;99.90
24470;DHT22;12635;50.852;5.676;2023-07-20T02:56:49;14.80;99.90
24470;DHT22;12635;50.852;5.676;2023-07-20T02:59:17;14.80;99.90
24470;DHT22;12635;50.852;5.676;2023-07-20T03:01:44;14.80;99.90
24470;DHT22;12635;50.852;5.676;2023-07-20T03:04:10;14.80;99.90
24470;DHT22;12635;50.852;5.676;2023-07-20T03:06:37;14.90;99.90
24470;DHT22;12635;50.852;5.676;2023-07-20T03:09:04;14.90;99.90
24470;DHT22;12635;50.852;5.676;2023-07-20T03:11:32;14.90;99.90
24470;DHT22;12635;50.852;5.676;2023-07-20T03:13:59;15.00;99.90
24470;DHT22;12635;50.852;5.676;2023-07-20T03:16:27;15.00;99.90
24470;DHT22;12635;50.852;5.676;2023-07-20T03:18:54;15.00;99.90
24470;DHT22;12635;50.852;5.676;2023-07-20T03:21:21;15.00;99.90
24470;DHT22;12635;50.852;5.676;2023-07-20T03:23:48;14.90;99.90
24470;DHT22;12635;50.852;5.676;2023-07-20T03:26:14;14.90;99.90
24470;DHT22;12635;50.852;5.676;2023-07-20T03:28:41;15.00;99.90
24470;DHT22;12635;50.852;5.676;2023-07-20T03:31:08;15.00;99.90
24470;DHT22;12635;50.852;5.676;2023-07-20T03:33:36;15.10;99.90
24470;DHT22;12635;50.852;5.676;2023-07-20T03:36:04;15.00;99.90
24470;DHT22;12635;50.852;5.676;2023-07-20T03:38:31;15.10;99.90
24470;DHT22;12635;50.852;5.676;2023-07-20T03:40:58;15.10;99.90
24470;DHT22;12635;50.852;5.676;2023-07-20T03:43:26;15.10;99.90
24470;DHT22;12635;50.852;5.676;2023-07-20T03:45:53;15.10;99.90
24470;DHT22;12635;50.852;5.676;2023-07-20T03:48:21;15.10;99.90
24470;DHT22;12635;50.852;5.676;2023-07-20T03:50:51;15.20;99.90
24470;DHT22;12635;50.852;5.676;2023-07-20T03:53:18;15.20;99.90
24470;DHT22;12635;50.852;5.676;2023-07-20T03:55:45;15.20;99.90
24470;DHT22;12635;50.852;5.676;2023-07-20T03:58:12;15.20;99.90
24470;DHT22;12635;50.852;5.676;2023-07-20T04:00:39;15.20;99.90
24470;DHT22;12635;50.852;5.676;2023-07-20T04:03:06;15.30;99.90
24470;DHT22;12635;50.852;5.676;2023-07-20T04:05:33;15.30;99.90
24470;DHT22;12635;50.852;5.676;2023-07-20T04:08:01;15.30;99.90
24470;DHT22;12635;50.852;5.676;2023-07-20T04:10:28;15.30;99.90
24470;DHT22;12635;50.852;5.676;2023-07-20T04:12:55;15.30;99.90
24470;DHT22;12635;50.852;5.676;2023-07-20T04:15:22;15.30;99.90
24470;DHT22;12635;50.852;5.676;2023-07-20T04:17:49;15.30;99.90
24470;DHT22;12635;50.852;5.676;2023-07-20T04:20:16;15.30;99.90
24470;DHT22;12635;50.852;5.676;2023-07-20T04:22:44;15.30;99.90
24470;DHT22;12635;50.852;5.676;2023-07-20T04:25:12;15.30;99.90
24470;DHT22;12635;50.852;5.676;2023-07-20T04:27:39;15.30;99.90
24470;DHT22;12635;50.852;5.676;2023-07-20T04:30:07;15.30;99.90
24470;DHT22;12635;50.852;5.676;2023-07-20T04:32:34;15.30;99.90
24470;DHT22;12635;50.852;5.676;2023-07-20T04:35:05;15.30;99.90
24470;DHT22;12635;50.852;5.676;2023-07-20T04:37:32;15.30;99.90
24470;DHT22;12635;50.852;5.676;2023-07-20T04:39:59;15.30;99.90
24470;DHT22;12635;50.852;5.676;2023-07-20T04:42:27;15.30;99.90
24470;DHT22;12635;50.852;5.676;2023-07-20T04:44:54;15.30;99.90
24470;DHT22;12635;50.852;5.676;2023-07-20T04:47:21;15.40;99.90
24470;DHT22;12635;50.852;5.676;2023-07-20T04:49:48;15.40;99.90
24470;DHT22;12635;50.852;5.676;2023-07-20T04:52:15;15.40;99.90
24470;DHT22;12635;50.852;5.676;2023-07-20T04:54:41;15.50;99.90
24470;DHT22;12635;50.852;5.676;2023-07-20T04:57:10;15.50;99.90
24470;DHT22;12635;50.852;5.676;2023-07-20T04:59:39;15.50;99.90
24470;DHT22;12635;50.852;5.676;2023-07-20T05:02:06;15.50;99.90
24470;DHT22;12635;50.852;5.676;2023-07-20T05:04:32;15.60;99.90
24470;DHT22;12635;50.852;5.676;2023-07-20T05:07:00;15.60;99.90
24470;DHT22;12635;50.852;5.676;2023-07-20T05:09:27;15.60;99.90
24470;DHT22;12635;50.852;5.676;2023-07-20T05:11:53;15.60;99.90
24470;DHT22;12635;50.852;5.676;2023-07-20T05:14:20;15.60;99.90
24470;DHT22;12635;50.852;5.676;2023-07-20T05:16:49;15.70;99.90
24470;DHT22;12635;50.852;5.676;2023-07-20T05:19:16;15.70;99.90
24470;DHT22;12635;50.852;5.676;2023-07-20T05:21:42;15.70;99.90
24470;DHT22;12635;50.852;5.676;2023-07-20T05:24:09;15.70;99.90
24470;DHT22;12635;50.852;5.676;2023-07-20T05:26:36;15.70;99.90
24470;DHT22;12635;50.852;5.676;2023-07-20T05:29:03;15.70;99.90
24470;DHT22;12635;50.852;5.676;2023-07-20T05:31:30;15.60;99.90
24470;DHT22;12635;50.852;5.676;2023-07-20T05:33:58;15.70;99.90
24470;DHT22;12635;50.852;5.676;2023-07-20T05:36:25;15.70;99.90
24470;DHT22;12635;50.852;5.676;2023-07-20T05:38:52;15.80;99.90
24470;DHT22;12635;50.852;5.676;2023-07-20T05:41:19;15.80;99.90
24470;DHT22;12635;50.852;5.676;2023-07-20T05:43:46;15.90;99.90
24470;DHT22;12635;50.852;5.676;2023-07-20T05:46:13;16.00;99.90
24470;DHT22;12635;50.852;5.676;2023-07-20T05:48:40;16.20;99.90
24470;DHT22;12635;50.852;5.676;2023-07-20T05:51:08;16.20;99.90
24470;DHT22;12635;50.852;5.676;2023-07-20T05:53:35;16.20;99.90
24470;DHT22;12635;50.852;5.676;2023-07-20T05:56:03;16.40;99.90
24470;DHT22;12635;50.852;5.676;2023-07-20T05:58:30;16.50;99.90
24470;DHT22;12635;50.852;5.676;2023-07-20T06:00:57;16.70;99.90
24470;DHT22;12635;50.852;5.676;2023-07-20T06:03:24;16.90;99.90
24470;DHT22;12635;50.852;5.676;2023-07-20T06:05:51;17.00;99.90
24470;DHT22;12635;50.852;5.676;2023-07-20T06:08:19;17.10;99.90
24470;DHT22;12635;50.852;5.676;2023-07-20T06:10:49;17.10;99.90
24470;DHT22;12635;50.852;5.676;2023-07-20T06:13:16;17.20;99.90
24470;DHT22;12635;50.852;5.676;2023-07-20T06:15:43;17.10;99.90
24470;DHT22;12635;50.852;5.676;2023-07-20T06:18:10;17.00;99.90
24470;DHT22;12635;50.852;5.676;2023-07-20T06:20:37;17.00;99.90
24470;DHT22;12635;50.852;5.676;2023-07-20T06:23:04;17.20;99.90
24470;DHT22;12635;50.852;5.676;2023-07-20T06:25:32;18.00;99.90
24470;DHT22;12635;50.852;5.676;2023-07-20T06:27:59;18.90;99.90
24470;DHT22;12635;50.852;5.676;2023-07-20T06:30:26;20.80;99.90
24470;DHT22;12635;50.852;5.676;2023-07-20T06:32:53;21.20;99.90
24470;DHT22;12635;50.852;5.676;2023-07-20T06:35:20;21.20;99.90
24470;DHT22;12635;50.852;5.676;2023-07-20T06:37:47;20.30;99.90
24470;DHT22;12635;50.852;5.676;2023-07-20T06:40:13;19.30;99.90
24470;DHT22;12635;50.852;5.676;2023-07-20T06:42:42;19.30;99.90
24470;DHT22;12635;50.852;5.676;2023-07-20T06:45:09;20.50;99.90
24470;DHT22;12635;50.852;5.676;2023-07-20T06:47:37;21.30;99.90
24470;DHT22;12635;50.852;5.676;2023-07-20T06:50:04;21.00;99.90
24470;DHT22;12635;50.852;5.676;2023-07-20T06:52:31;20.20;99.90
24470;DHT22;12635;50.852;5.676;2023-07-20T06:54:58;19.80;99.90
24470;DHT22;12635;50.852;5.676;2023-07-20T06:57:25;19.80;99.90
24470;DHT22;12635;50.852;5.676;2023-07-20T06:59:53;20.80;99.90
24470;DHT22;12635;50.852;5.676;2023-07-20T07:02:20;21.40;99.90
24470;DHT22;12635;50.852;5.676;2023-07-20T07:04:47;21.60;99.90
24470;DHT22;12635;50.852;5.676;2023-07-20T07:07:14;20.80;99.90
24470;DHT22;12635;50.852;5.676;2023-07-20T07:09:41;19.80;99.90
24470;DHT22;12635;50.852;5.676;2023-07-20T07:12:08;20.10;99.90
24470;DHT22;12635;50.852;5.676;2023-07-20T07:14:35;21.90;99.90
24470;DHT22;12635;50.852;5.676;2023-07-20T07:17:04;21.30;99.90
24470;DHT22;12635;50.852;5.676;2023-07-20T07:19:31;20.50;99.90
24470;DHT22;12635;50.852;5.676;2023-07-20T07:21:58;20.20;99.90
24470;DHT22;12635;50.852;5.676;2023-07-20T07:24:25;20.80;99.90
24470;DHT22;12635;50.852;5.676;2023-07-20T07:26:53;20.40;99.90
24470;DHT22;12635;50.852;5.676;2023-07-20T07:29:20;20.30;99.90
24470;DHT22;12635;50.852;5.676;2023-07-20T07:31:47;20.50;99.90
24470;DHT22;12635;50.852;5.676;2023-07-20T07:34:15;20.20;99.90
24470;DHT22;12635;50.852;5.676;2023-07-20T07:36:42;20.00;99.90
24470;DHT22;12635;50.852;5.676;2023-07-20T07:39:09;19.60;99.90
24470;DHT22;12635;50.852;5.676;2023-07-20T07:41:36;19.70;99.90
24470;DHT22;12635;50.852;5.676;2023-07-20T07:44:03;20.10;99.90
24470;DHT22;12635;50.852;5.676;2023-07-20T07:46:30;20.50;99.90
24470;DHT22;12635;50.852;5.676;2023-07-20T07:48:58;21.30;99.90
24470;DHT22;12635;50.852;5.676;2023-07-20T07:51:26;21.20;99.90
24470;DHT22;12635;50.852;5.676;2023-07-20T07:53:53;21.60;99.90
24470;DHT22;12635;50.852;5.676;2023-07-20T07:56:20;20.80;99.90
24470;DHT22;12635;50.852;5.676;2023-07-20T07:58:48;20.40;99.90
24470;DHT22;12635;50.852;5.676;2023-07-20T08:01:16;20.70;99.90
24470;DHT22;12635;50.852;5.676;2023-07-20T08:03:44;21.20;99.90
24470;DHT22;12635;50.852;5.676;2023-07-20T08:06:12;21.60;99.90
24470;DHT22;12635;50.852;5.676;2023-07-20T08:08:40;22.10;99.90
24470;DHT22;12635;50.852;5.676;2023-07-20T08:11:08;23.10;99.90
24470;DHT22;12635;50.852;5.676;2023-07-20T08:13:35;22.30;99.90
24470;DHT22;12635;50.852;5.676;2023-07-20T08:16:02;21.60;99.90
24470;DHT22;12635;50.852;5.676;2023-07-20T08:18:29;21.20;99.90
24470;DHT22;12635;50.852;5.676;2023-07-20T08:20:56;20.80;99.90
24470;DHT22;12635;50.852;5.676;2023-07-20T08:23:23;21.10;99.90
24470;DHT22;12635;50.852;5.676;2023-07-20T08:25:51;21.30;99.90
24470;DHT22;12635;50.852;5.676;2023-07-20T08:28:18;21.60;99.90
24470;DHT22;12635;50.852;5.676;2023-07-20T08:30:46;21.50;99.90
24470;DHT22;12635;50.852;5.676;2023-07-20T08:33:13;20.90;99.90
24470;DHT22;12635;50.852;5.676;2023-07-20T08:35:40;20.60;99.90
24470;DHT22;12635;50.852;5.676;2023-07-20T08:38:07;21.20;99.90
24470;DHT22;12635;50.852;5.676;2023-07-20T08:40:38;20.80;99.90
24470;DHT22;12635;50.852;5.676;2023-07-20T08:43:07;20.50;99.90
24470;DHT22;12635;50.852;5.676;2023-07-20T08:45:35;20.50;99.90
24470;DHT22;12635;50.852;5.676;2023-07-20T08:48:03;20.40;99.90
24470;DHT22;12635;50.852;5.676;2023-07-20T08:50:32;20.90;99.90
24470;DHT22;12635;50.852;5.676;2023-07-20T08:52:59;21.70;99.90
24470;DHT22;12635;50.852;5.676;2023-07-20T08:55:26;21.20;99.90
24470;DHT22;12635;50.852;5.676;2023-07-20T08:57:54;21.00;99.90
24470;DHT22;12635;50.852;5.676;2023-07-20T09:00:23;21.10;99.90
24470;DHT22;12635;50.852;5.676;2023-07-20T09:02:52;21.30;99.90
24470;DHT22;12635;50.852;5.676;2023-07-20T09:05:19;22.00;99.90
24470;DHT22;12635;50.852;5.676;2023-07-20T09:07:46;22.90;99.90
24470;DHT22;12635;50.852;5.676;2023-07-20T09:10:13;22.30;99.90
24470;DHT22;12635;50.852;5.676;2023-07-20T09:12:40;21.60;99.90
24470;DHT22;12635;50.852;5.676;2023-07-20T09:15:08;21.70;99.90
24470;DHT22;12635;50.852;5.676;2023-07-20T09:17:37;22.50;99.90
24470;DHT22;12635;50.852;5.676;2023-07-20T09:20:05;22.80;99.90
24470;DHT22;12635;50.852;5.676;2023-07-20T09:22:33;23.50;99.90
24470;DHT22;12635;50.852;5.676;2023-07-20T09:25:00;23.30;99.90
24470;DHT22;12635;50.852;5.676;2023-07-20T09:27:34;22.70;99.90
24470;DHT22;12635;50.852;5.676;2023-07-20T09:30:01;23.40;99.90
24470;DHT22;12635;50.852;5.676;2023-07-20T09:32:28;23.30;99.90
24470;DHT22;12635;50.852;5.676;2023-07-20T09:34:56;25.20;99.90
24470;DHT22;12635;50.852;5.676;2023-07-20T09:37:23;25.20;99.90
24470;DHT22;12635;50.852;5.676;2023-07-20T09:39:52;24.80;99.90
24470;DHT22;12635;50.852;5.676;2023-07-20T09:42:19;24.30;99.90
24470;DHT22;12635;50.852;5.676;2023-07-20T09:44:48;24.80;99.90
24470;DHT22;12635;50.852;5.676;2023-07-20T09:47:20;25.70;99.90
24470;DHT22;12635;50.852;5.676;2023-07-20T09:49:47;24.30;99.90
24470;DHT22;12635;50.852;5.676;2023-07-20T09:52:16;23.80;99.90
24470;DHT22;12635;50.852;5.676;2023-07-20T09:54:44;24.70;99.90
24470;DHT22;12635;50.852;5.676;2023-07-20T09:57:11;25.30;99.90
24470;DHT22;12635;50.852;5.676;2023-07-20T09:59:40;25.40;99.90
24470;DHT22;12635;50.852;5.676;2023-07-20T10:02:09;24.80;99.90
24470;DHT22;12635;50.852;5.676;2023-07-20T10:04:38;24.90;99.90
24470;DHT22;12635;50.852;5.676;2023-07-20T10:07:05;25.40;99.90
24470;DHT22;12635;50.852;5.676;2023-07-20T10:09:35;25.80;99.90
24470;DHT22;12635;50.852;5.676;2023-07-20T10:12:06;26.30;99.90
24470;DHT22;12635;50.852;5.676;2023-07-20T10:14:34;26.40;99.90
24470;DHT22;12635;50.852;5.676;2023-07-20T10:17:04;25.80;99.90
24470;DHT22;12635;50.852;5.676;2023-07-20T10:19:33;24.90;99.90
24470;DHT22;12635;50.852;5.676;2023-07-20T10:22:03;23.80;99.90
24470;DHT22;12635;50.852;5.676;2023-07-20T10:24:34;24.10;99.90
24470;DHT22;12635;50.852;5.676;2023-07-20T10:27:02;25.20;99.90
24470;DHT22;12635;50.852;5.676;2023-07-20T10:29:30;25.50;99.90
24470;DHT22;12635;50.852;5.676;2023-07-20T10:31:58;25.30;99.90
24470;DHT22;12635;50.852;5.676;2023-07-20T10:34:25;25.80;99.90
24470;DHT22;12635;50.852;5.676;2023-07-20T10:36:52;26.90;99.90
24470;DHT22;12635;50.852;5.676;2023-07-20T10:39:23;26.50;99.90
24470;DHT22;12635;50.852;5.676;2023-07-20T10:41:59;25.80;99.90
24470;DHT22;12635;50.852;5.676;2023-07-20T10:44:28;25.40;99.90
24470;DHT22;12635;50.852;5.676;2023-07-20T10:46:58;24.60;99.90
24470;DHT22;12635;50.852;5.676;2023-07-20T10:49:26;24.70;99.90
24470;DHT22;12635;50.852;5.676;2023-07-20T10:51:56;25.80;99.90
24470;DHT22;12635;50.852;5.676;2023-07-20T10:59:48;24.80;99.90
24470;DHT22;12635;50.852;5.676;2023-07-20T11:02:17;25.30;99.90
24470;DHT22;12635;50.852;5.676;2023-07-20T11:04:45;25.30;99.90
24470;DHT22;12635;50.852;5.676;2023-07-20T11:07:15;24.70;99.90
24470;DHT22;12635;50.852;5.676;2023-07-20T11:09:42;25.00;99.90
24470;DHT22;12635;50.852;5.676;2023-07-20T11:12:09;24.50;99.90
24470;DHT22;12635;50.852;5.676;2023-07-20T11:14:39;24.60;99.90
24470;DHT22;12635;50.852;5.676;2023-07-20T11:17:12;25.40;99.90
24470;DHT22;12635;50.852;5.676;2023-07-20T11:19:39;25.70;99.90
24470;DHT22;12635;50.852;5.676;2023-07-20T11:22:07;25.50;99.90
24470;DHT22;12635;50.852;5.676;2023-07-20T11:24:34;25.90;99.90
24470;DHT22;12635;50.852;5.676;2023-07-20T11:27:04;24.40;99.90
24470;DHT22;12635;50.852;5.676;2023-07-20T11:29:31;24.90;99.90
24470;DHT22;12635;50.852;5.676;2023-07-20T11:31:58;25.50;99.90
24470;DHT22;12635;50.852;5.676;2023-07-20T11:34:27;25.60;99.90
24470;DHT22;12635;50.852;5.676;2023-07-20T11:36:54;26.40;99.90
24470;DHT22;12635;50.852;5.676;2023-07-20T11:39:21;24.80;99.90
24470;DHT22;12635;50.852;5.676;2023-07-20T11:41:50;24.20;99.90
24470;DHT22;12635;50.852;5.676;2023-07-20T11:44:17;24.10;99.90
24470;DHT22;12635;50.852;5.676;2023-07-20T11:46:44;24.20;99.90
24470;DHT22;12635;50.852;5.676;2023-07-20T11:49:12;25.50;99.90
24470;DHT22;12635;50.852;5.676;2023-07-20T11:51:40;25.60;99.90
24470;DHT22;12635;50.852;5.676;2023-07-20T11:54:07;26.00;99.90
24470;DHT22;12635;50.852;5.676;2023-07-20T11:56:34;24.80;99.90
24470;DHT22;12635;50.852;5.676;2023-07-20T11:59:01;24.70;99.90
24470;DHT22;12635;50.852;5.676;2023-07-20T12:01:29;25.40;99.90
24470;DHT22;12635;50.852;5.676;2023-07-20T12:03:58;25.50;99.90
24470;DHT22;12635;50.852;5.676;2023-07-20T12:06:27;25.20;99.90
24470;DHT22;12635;50.852;5.676;2023-07-20T12:08:56;24.50;99.90
24470;DHT22;12635;50.852;5.676;2023-07-20T12:11:32;25.00;99.90
24470;DHT22;12635;50.852;5.676;2023-07-20T12:13:59;25.30;99.90
24470;DHT22;12635;50.852;5.676;2023-07-20T12:16:26;26.40;99.90
24470;DHT22;12635;50.852;5.676;2023-07-20T12:18:58;25.70;99.90
24470;DHT22;12635;50.852;5.676;2023-07-20T12:21:25;25.30;99.90
24470;DHT22;12635;50.852;5.676;2023-07-20T12:23:52;24.80;99.90
24470;DHT22;12635;50.852;5.676;2023-07-20T12:26:21;24.70;99.90
24470;DHT22;12635;50.852;5.676;2023-07-20T12:28:49;25.40;99.90
24470;DHT22;12635;50.852;5.676;2023-07-20T12:31:16;25.40;99.90
24470;DHT22;12635;50.852;5.676;2023-07-20T12:33:43;24.90;99.90
24470;DHT22;12635;50.852;5.676;2023-07-20T12:36:10;25.40;99.90
24470;DHT22;12635;50.852;5.676;2023-07-20T12:38:37;26.10;99.90
24470;DHT22;12635;50.852;5.676;2023-07-20T12:41:04;27.50;99.90
24470;DHT22;12635;50.852;5.676;2023-07-20T12:43:32;27.30;99.90
24470;DHT22;12635;50.852;5.676;2023-07-20T12:45:59;26.30;99.90
24470;DHT22;12635;50.852;5.676;2023-07-20T12:48:26;25.90;99.90
24470;DHT22;12635;50.852;5.676;2023-07-20T12:50:53;26.30;99.90
24470;DHT22;12635;50.852;5.676;2023-07-20T12:53:20;27.40;99.90
24470;DHT22;12635;50.852;5.676;2023-07-20T12:55:47;26.00;99.90
24470;DHT22;12635;50.852;5.676;2023-07-20T12:58:15;26.10;99.90
24470;DHT22;12635;50.852;5.676;2023-07-20T13:00:43;26.30;99.90
24470;DHT22;12635;50.852;5.676;2023-07-20T13:03:10;26.80;99.90
24470;DHT22;12635;50.852;5.676;2023-07-20T13:05:37;26.50;99.90
24470;DHT22;12635;50.852;5.676;2023-07-20T13:08:04;25.70;99.90
24470;DHT22;12635;50.852;5.676;2023-07-20T13:10:31;26.60;99.90
24470;DHT22;12635;50.852;5.676;2023-07-20T13:12:59;26.50;99.90
24470;DHT22;12635;50.852;5.676;2023-07-20T13:15:29;26.20;99.90
24470;DHT22;12635;50.852;5.676;2023-07-20T13:17:59;26.40;99.90
24470;DHT22;12635;50.852;5.676;2023-07-20T13:20:26;26.50;99.90
24470;DHT22;12635;50.852;5.676;2023-07-20T13:22:53;26.40;99.90
24470;DHT22;12635;50.852;5.676;2023-07-20T13:25:20;27.70;99.90
24470;DHT22;12635;50.852;5.676;2023-07-20T13:27:47;27.50;99.90
24470;DHT22;12635;50.852;5.676;2023-07-20T13:30:14;26.90;99.90
24470;DHT22;12635;50.852;5.676;2023-07-20T13:32:42;26.60;99.90
24470;DHT22;12635;50.852;5.676;2023-07-20T13:35:10;27.30;99.90
24470;DHT22;12635;50.852;5.676;2023-07-20T13:37:37;27.50;99.90
24470;DHT22;12635;50.852;5.676;2023-07-20T13:40:05;28.00;99.90
24470;DHT22;12635;50.852;5.676;2023-07-20T13:42:33;27.40;99.90
24470;DHT22;12635;50.852;5.676;2023-07-20T13:45:00;27.40;99.90
24470;DHT22;12635;50.852;5.676;2023-07-20T13:47:27;26.30;99.90
24470;DHT22;12635;50.852;5.676;2023-07-20T13:49:54;26.00;99.90
24470;DHT22;12635;50.852;5.676;2023-07-20T13:52:23;25.30;99.90
24470;DHT22;12635;50.852;5.676;2023-07-20T13:54:49;23.80;99.90
24470;DHT22;12635;50.852;5.676;2023-07-20T13:57:16;23.60;99.90
24470;DHT22;12635;50.852;5.676;2023-07-20T13:59:43;25.40;99.90
24470;DHT22;12635;50.852;5.676;2023-07-20T14:02:10;27.10;99.90
24470;DHT22;12635;50.852;5.676;2023-07-20T14:04:38;28.60;99.90
24470;DHT22;12635;50.852;5.676;2023-07-20T14:07:05;28.00;99.90
24470;DHT22;12635;50.852;5.676;2023-07-20T14:09:33;29.80;99.90
24470;DHT22;12635;50.852;5.676;2023-07-20T14:12:00;29.20;99.90
24470;DHT22;12635;50.852;5.676;2023-07-20T14:14:27;28.30;99.90
24470;DHT22;12635;50.852;5.676;2023-07-20T14:16:54;27.00;99.90
24470;DHT22;12635;50.852;5.676;2023-07-20T14:19:21;26.20;99.90
24470;DHT22;12635;50.852;5.676;2023-07-20T14:21:48;25.70;99.90
24470;DHT22;12635;50.852;5.676;2023-07-20T14:24:15;25.10;99.90
24470;DHT22;12635;50.852;5.676;2023-07-20T14:26:44;26.20;99.90
24470;DHT22;12635;50.852;5.676;2023-07-20T14:29:11;26.50;99.90
24470;DHT22;12635;50.852;5.676;2023-07-20T14:31:38;26.30;99.90
24470;DHT22;12635;50.852;5.676;2023-07-20T14:34:05;25.50;99.90
24470;DHT22;12635;50.852;5.676;2023-07-20T14:36:32;26.40;99.90
24470;DHT22;12635;50.852;5.676;2023-07-20T14:38:59;26.60;99.90
24470;DHT22;12635;50.852;5.676;2023-07-20T14:41:26;26.50;99.90
24470;DHT22;12635;50.852;5.676;2023-07-20T14:43:54;27.10;99.90
24470;DHT22;12635;50.852;5.676;2023-07-20T14:46:21;26.30;99.90
24470;DHT22;12635;50.852;5.676;2023-07-20T14:48:48;25.80;99.90
24470;DHT22;12635;50.852;5.676;2023-07-20T14:51:17;25.70;99.90
24470;DHT22;12635;50.852;5.676;2023-07-20T14:53:44;26.20;99.90
24470;DHT22;12635;50.852;5.676;2023-07-20T14:56:11;27.10;99.90
24470;DHT22;12635;50.852;5.676;2023-07-20T14:58:38;27.00;99.90
24470;DHT22;12635;50.852;5.676;2023-07-20T15:01:06;27.70;99.90
24470;DHT22;12635;50.852;5.676;2023-07-20T15:03:33;28.10;99.90
24470;DHT22;12635;50.852;5.676;2023-07-20T15:06:00;27.50;99.90
24470;DHT22;12635;50.852;5.676;2023-07-20T15:08:27;27.20;99.90
24470;DHT22;12635;50.852;5.676;2023-07-20T15:10:54;26.40;99.90
24470;DHT22;12635;50.852;5.676;2023-07-20T15:13:21;26.50;99.90
24470;DHT22;12635;50.852;5.676;2023-07-20T15:15:48;26.50;99.90
24470;DHT22;12635;50.852;5.676;2023-07-20T15:18:17;25.90;99.90
24470;DHT22;12635;50.852;5.676;2023-07-20T15:20:44;26.50;99.90
24470;DHT22;12635;50.852;5.676;2023-07-20T15:23:11;26.70;99.90
24470;DHT22;12635;50.852;5.676;2023-07-20T15:25:38;26.30;99.90
24470;DHT22;12635;50.852;5.676;2023-07-20T15:28:05;25.90;99.90
24470;DHT22;12635;50.852;5.676;2023-07-20T15:30:32;25.60;99.90
24470;DHT22;12635;50.852;5.676;2023-07-20T15:32:58;24.90;99.90
24470;DHT22;12635;50.852;5.676;2023-07-20T15:35:27;24.20;99.90
24470;DHT22;12635;50.852;5.676;2023-07-20T15:37:54;23.80;99.90
24470;DHT22;12635;50.852;5.676;2023-07-20T15:40:21;23.80;99.90